KDNL

Daniel Field Airport

Augusta, Georgia, USA
KDNL 181138Z 1812/1912 VRB03KT P6SM FEW250 FM181800 17006KT P6SM SCT060
Issued Valid From Valid To
Jun-18 @ 11:38 UTC
(an hour ago)
Jun-18 @ 12:00 UTC
(an hour ago)
Jun-19 @ 12:00 UTC
(in 23 hours)
Jun-18 @ 12:00 to Jun-18 @ 18:00
KDNL 181138Z 1812/1912 VRB03KT P6SM FEW250
Wind Visibility Clouds
Variable at 3 knots Greater than 6 miles
  • Few at 25,000' AGL
From Jun-18 @ 18:00 to Jun-19 @ 12:00
FM181800 17006KT P6SM SCT060
Wind Visibility Clouds
170° at 6 knots Greater than 6 miles
  • Scattered at 6,000' AGL
KDNL 181138Z 1812/1912 VRB03KT P6SM FEW250 FM181800 17006KT P6SM SCT060
Issued Jun-18 @ 11:38 UTC
(an hour ago)
Valid From Jun-18 @ 12:00 UTC
(an hour ago)
Valid To Jun-19 @ 12:00 UTC
(in 23 hours)
Jun-18 @ 12:00 - Jun-18 @ 18:00
Wind Visibility
Variable at 3 knots Greater than 6 miles
Clouds
  • Few at 25,000' AGL
From Jun-18 @ 18:00 - Jun-19 @ 12:00
Wind Visibility
170° at 6 knots Greater than 6 miles
Clouds
  • Scattered at 6,000' AGL